createdAt,value
2023-03-28T00:00:03.361Z,1.70
2023-03-28T00:03:14.743Z,3.95
2023-03-28T00:06:18.894Z,2.13
2023-03-28T00:09:21.554Z,2.00
2023-03-28T00:12:24.734Z,2.28
2023-03-28T00:15:26.920Z,2.20
2023-03-28T00:18:29.932Z,1.75
2023-03-28T00:21:35.627Z,1.85
2023-03-28T00:24:39.132Z,2.22
2023-03-28T00:27:41.350Z,2.65
2023-03-28T00:30:43.511Z,1.92
2023-03-28T00:33:47.775Z,1.90
2023-03-28T00:36:50.998Z,3.42
2023-03-28T00:39:54.088Z,1.80
2023-03-28T00:42:57.347Z,3.65
2023-03-28T00:46:08.536Z,2.53
2023-03-28T00:49:22.794Z,2.55
2023-03-28T00:52:29.973Z,3.08
2023-03-28T00:55:57.809Z,2.40
2023-03-28T00:59:05.173Z,3.17
2023-03-28T01:02:07.456Z,2.25
2023-03-28T01:05:09.936Z,2.50
2023-03-28T01:08:22.022Z,4.15
2023-03-28T01:11:25.275Z,4.70
2023-03-28T01:14:29.384Z,2.00
2023-03-28T01:17:34.655Z,2.60
2023-03-28T01:21:05.421Z,2.05
2023-03-28T01:24:13.897Z,2.63
2023-03-28T01:27:47.459Z,2.53
2023-03-28T01:31:28.493Z,3.25
2023-03-28T01:35:21.080Z,2.20
2023-03-28T01:38:51.101Z,2.03
2023-03-28T01:42:05.572Z,2.72
2023-03-28T01:45:19.329Z,4.03
2023-03-28T01:48:32.554Z,3.13
2023-03-28T01:51:51.811Z,2.80
2023-03-28T01:55:05.478Z,3.00
2023-03-28T01:58:20.283Z,3.25
2023-03-28T02:01:37.082Z,2.70
2023-03-28T02:04:48.394Z,2.35
2023-03-28T02:07:52.268Z,3.55
2023-03-28T02:11:00.300Z,2.75
2023-03-28T02:14:11.248Z,3.28
2023-03-28T02:17:35.109Z,3.57
2023-03-28T02:21:01.778Z,4.38
2023-03-28T02:24:12.965Z,3.63
2023-03-28T02:27:37.724Z,2.13
2023-03-28T02:31:04.632Z,2.28
2023-03-28T02:34:07.030Z,2.95
2023-03-28T02:37:33.567Z,3.25
2023-03-28T02:40:50.076Z,3.55
2023-03-28T02:44:16.241Z,4.07
2023-03-28T02:47:48.160Z,2.90
2023-03-28T02:51:16.382Z,2.53
2023-03-28T02:54:24.295Z,3.03
2023-03-28T02:57:59.167Z,4.50
2023-03-28T03:01:03.682Z,2.55
2023-03-28T03:04:06.561Z,2.13
2023-03-28T03:07:09.729Z,2.33
2023-03-28T03:10:14.423Z,3.25
2023-03-28T03:13:20.869Z,2.50
2023-03-28T03:16:24.058Z,2.67
2023-03-28T03:19:27.257Z,3.42
2023-03-28T03:22:29.535Z,3.30
2023-03-28T03:25:31.757Z,2.67
2023-03-28T03:28:51.682Z,3.33
2023-03-28T03:31:54.595Z,2.78
2023-03-28T03:35:15.873Z,2.50
2023-03-28T03:38:19.190Z,3.08
2023-03-28T03:41:21.547Z,3.10
2023-03-28T03:44:24.466Z,2.83
2023-03-28T03:47:27.750Z,2.67
2023-03-28T03:50:30.096Z,2.38
2023-03-28T03:53:34.917Z,2.67
2023-03-28T03:56:46.225Z,2.53
2023-03-28T03:59:49.354Z,3.75
2023-03-28T04:02:53.905Z,5.75
2023-03-28T04:06:02.238Z,2.92
2023-03-28T04:09:05.119Z,3.13
2023-03-28T04:12:23.885Z,2.92
2023-03-28T04:15:29.447Z,3.05
2023-03-28T04:18:35.865Z,2.65
2023-03-28T04:21:42.905Z,3.17
2023-03-28T04:24:46.086Z,2.83
2023-03-28T04:28:05.057Z,3.05
2023-03-28T04:31:12.343Z,3.25
2023-03-28T04:34:20.171Z,4.72
2023-03-28T04:37:37.984Z,4.22
2023-03-28T04:40:44.854Z,3.95
2023-03-28T04:44:03.189Z,4.53
2023-03-28T04:47:13.225Z,5.03
2023-03-28T04:50:15.574Z,4.28
2023-03-28T04:53:17.922Z,3.80
2023-03-28T04:56:45.819Z,5.32
2023-03-28T04:59:51.246Z,4.18
2023-03-28T05:03:19.285Z,4.50
2023-03-28T05:06:34.493Z,5.45
2023-03-28T05:09:38.274Z,5.05
2023-03-28T05:12:40.516Z,2.83
2023-03-28T05:15:45.804Z,4.57
2023-03-28T05:19:14.198Z,4.95
2023-03-28T05:22:39.431Z,6.95
2023-03-28T05:25:41.688Z,3.97
2023-03-28T05:28:44.519Z,6.40
2023-03-28T05:31:47.124Z,6.50
2023-03-28T05:34:55.886Z,5.55
2023-03-28T05:38:02.686Z,3.63
2023-03-28T05:41:05.428Z,5.97
2023-03-28T05:44:09.196Z,5.00
2023-03-28T05:47:31.659Z,8.65
2023-03-28T05:50:34.009Z,6.10
2023-03-28T05:53:40.601Z,5.85
2023-03-28T05:56:45.594Z,7.57
2023-03-28T05:59:48.614Z,6.00
2023-03-28T06:02:55.201Z,5.65
2023-03-28T06:06:08.768Z,6.38
2023-03-28T06:09:12.450Z,5.10
2023-03-28T06:12:25.526Z,6.93
2023-03-28T06:15:28.522Z,5.63
2023-03-28T06:18:31.044Z,6.40
2023-03-28T06:21:33.275Z,5.85
2023-03-28T06:24:40.640Z,5.57
2023-03-28T06:27:42.884Z,9.90
2023-03-28T06:30:49.761Z,7.50
2023-03-28T06:33:52.157Z,5.22
2023-03-28T06:36:56.262Z,6.05
2023-03-28T06:40:03.323Z,5.97
2023-03-28T06:43:06.336Z,5.60
2023-03-28T06:46:39.642Z,5.55
2023-03-28T06:49:41.861Z,4.32
2023-03-28T06:53:02.612Z,5.63
2023-03-28T06:56:06.789Z,3.90
2023-03-28T06:59:09.041Z,4.18
2023-03-28T07:02:11.923Z,6.38
2023-03-28T07:05:15.461Z,4.07
2023-03-28T07:08:17.687Z,5.35
2023-03-28T07:11:19.930Z,4.60
2023-03-28T07:14:25.092Z,5.82
2023-03-28T07:17:27.347Z,4.35
2023-03-28T07:20:29.813Z,5.82
2023-03-28T07:23:32.128Z,7.38
2023-03-28T07:26:34.393Z,7.47
2023-03-28T07:29:37.615Z,5.38
2023-03-28T07:32:51.431Z,6.15
2023-03-28T07:35:59.100Z,9.63
2023-03-28T07:39:01.594Z,4.80
2023-03-28T07:42:04.036Z,6.20
2023-03-28T07:45:06.746Z,5.60
2023-03-28T07:48:09.074Z,6.15
2023-03-28T07:51:11.697Z,4.82
2023-03-28T07:54:18.012Z,3.83
2023-03-28T07:57:21.897Z,7.85
2023-03-28T08:00:39.359Z,3.50
2023-03-28T08:04:01.083Z,6.43
2023-03-28T08:07:13.677Z,7.97
2023-03-28T08:10:19.054Z,5.90
2023-03-28T08:13:21.403Z,5.13
2023-03-28T08:16:23.800Z,4.70
2023-03-28T08:19:27.583Z,3.92
2023-03-28T08:22:50.021Z,5.13
2023-03-28T08:26:15.006Z,4.03
2023-03-28T08:29:23.387Z,5.25
2023-03-28T08:32:27.113Z,5.75
2023-03-28T08:35:32.388Z,4.18
2023-03-28T08:38:38.521Z,5.85
2023-03-28T08:42:22.793Z,3.97
2023-03-28T08:45:56.175Z,3.67
2023-03-28T08:49:02.632Z,3.72
2023-03-28T08:52:05.997Z,3.55
2023-03-28T08:55:29.368Z,4.25
2023-03-28T08:59:02.209Z,2.97
2023-03-28T09:02:18.606Z,3.42
2023-03-28T09:05:47.429Z,3.92
2023-03-28T09:08:56.870Z,4.63
2023-03-28T09:12:34.764Z,5.05
2023-03-28T09:15:40.414Z,3.40
2023-03-28T09:19:00.006Z,3.28
2023-03-28T09:22:15.179Z,5.60
2023-03-28T09:25:39.528Z,3.72
2023-03-28T09:29:06.002Z,3.28
2023-03-28T09:32:28.310Z,3.42
2023-03-28T09:35:32.481Z,2.97
2023-03-28T09:38:40.944Z,4.20
2023-03-28T09:42:08.124Z,3.97
2023-03-28T09:45:37.593Z,4.45
2023-03-28T09:49:02.727Z,3.53
2023-03-28T09:52:19.968Z,2.90
2023-03-28T09:55:24.869Z,4.78
2023-03-28T09:58:29.026Z,3.08
2023-03-28T10:01:55.245Z,3.35
2023-03-28T10:04:57.877Z,3.70
2023-03-28T10:08:28.989Z,3.15
2023-03-28T10:12:00.713Z,2.72
2023-03-28T10:15:32.884Z,2.50
2023-03-28T10:18:54.249Z,5.57
2023-03-28T10:22:30.705Z,3.35
2023-03-28T10:25:46.981Z,3.33
2023-03-28T10:28:54.330Z,2.78
2023-03-28T10:31:58.736Z,3.03
2023-03-28T10:35:26.175Z,3.30
2023-03-28T10:38:46.880Z,4.00
2023-03-28T10:42:08.074Z,3.70
2023-03-28T10:45:36.558Z,2.47
2023-03-28T10:48:42.447Z,3.00
2023-03-28T10:51:47.063Z,2.92
2023-03-28T10:55:11.381Z,2.95
2023-03-28T10:58:54.088Z,2.72
2023-03-28T11:02:17.593Z,3.55
2023-03-28T11:05:52.285Z,4.35
2023-03-28T11:09:17.686Z,2.45
2023-03-28T11:12:54.386Z,2.40
2023-03-28T11:16:31.547Z,2.95
2023-03-28T11:20:08.897Z,2.38
2023-03-28T11:23:38.289Z,2.55
2023-03-28T11:27:14.910Z,4.85
2023-03-28T11:30:28.931Z,2.55
2023-03-28T11:34:15.556Z,3.75
2023-03-28T11:37:23.266Z,2.90
2023-03-28T11:40:30.636Z,2.85
2023-03-28T11:44:16.306Z,2.38
2023-03-28T11:47:23.817Z,2.90
2023-03-28T11:50:56.537Z,2.22
2023-03-28T11:54:24.533Z,2.63
2023-03-28T11:57:33.616Z,3.20
2023-03-28T12:00:52.580Z,2.63
2023-03-28T12:04:23.309Z,2.67
2023-03-28T12:07:39.429Z,2.15
2023-03-28T12:11:06.240Z,2.10
2023-03-28T12:15:00.489Z,2.28
2023-03-28T12:18:27.511Z,3.03
2023-03-28T12:21:43.510Z,3.10
2023-03-28T12:24:54.104Z,1.80
2023-03-28T12:28:10.647Z,2.08
2023-03-28T12:31:31.106Z,3.20
2023-03-28T12:35:13.191Z,2.78
2023-03-28T12:39:01.199Z,2.30
2023-03-28T12:42:10.878Z,2.25
2023-03-28T12:45:39.571Z,2.55
2023-03-28T12:48:50.026Z,2.15
2023-03-28T12:52:05.514Z,2.40
2023-03-28T12:55:28.678Z,3.63
2023-03-28T12:58:36.977Z,3.13
2023-03-28T13:01:51.906Z,2.95
2023-03-28T13:05:33.270Z,2.15
2023-03-28T13:08:59.845Z,2.60
2023-03-28T13:12:30.450Z,2.63
2023-03-28T13:15:33.656Z,3.47
2023-03-28T13:18:48.185Z,2.65
2023-03-28T13:21:55.771Z,2.28
2023-03-28T13:25:26.042Z,2.42
2023-03-28T13:31:43.731Z,2.65
2023-03-28T13:34:52.673Z,2.37
2023-03-28T13:37:55.134Z,2.75
2023-03-28T13:41:01.424Z,2.30
2023-03-28T13:44:11.800Z,3.88
2023-03-28T13:50:26.850Z,2.47
2023-03-28T13:53:46.549Z,4.18
2023-03-28T13:56:52.859Z,2.88
2023-03-28T14:00:06.111Z,2.40
2023-03-28T14:03:17.380Z,2.60
2023-03-28T14:06:30.785Z,2.55
2023-03-28T14:09:34.750Z,2.25
2023-03-28T14:12:38.080Z,2.05
2023-03-28T14:15:41.419Z,3.00
2023-03-28T14:18:49.484Z,2.60
2023-03-28T14:21:54.006Z,2.80
2023-03-28T14:25:05.254Z,2.97
2023-03-28T14:28:08.911Z,2.47
2023-03-28T14:31:28.512Z,2.13
2023-03-28T14:34:32.293Z,3.42
2023-03-28T14:37:34.707Z,2.47
2023-03-28T14:40:39.232Z,1.95
2023-03-28T14:43:41.560Z,2.72
2023-03-28T14:46:44.045Z,2.88
2023-03-28T14:49:47.051Z,1.60
2023-03-28T14:52:49.565Z,4.13
2023-03-28T14:55:54.679Z,2.97
2023-03-28T14:59:02.395Z,2.65
2023-03-28T15:02:05.860Z,2.00
2023-03-28T15:05:15.846Z,2.92
2023-03-28T15:08:31.847Z,2.50
2023-03-28T15:11:37.349Z,4.82
2023-03-28T15:14:42.987Z,2.58
2023-03-28T15:17:46.855Z,2.45
2023-03-28T15:20:55.438Z,2.55
2023-03-28T15:24:01.459Z,3.03
2023-03-28T15:27:07.661Z,3.05
2023-03-28T15:30:16.674Z,2.50
2023-03-28T15:33:23.148Z,2.22
2023-03-28T15:36:33.415Z,2.45
2023-03-28T15:42:38.376Z,2.30
2023-03-28T15:45:44.466Z,2.45
2023-03-28T15:48:47.470Z,2.13
2023-03-28T15:52:01.935Z,2.55
2023-03-28T15:55:06.479Z,2.67
2023-03-28T15:58:14.659Z,2.83
2023-03-28T16:01:18.957Z,3.00
2023-03-28T16:04:28.564Z,2.80
2023-03-28T16:07:49.063Z,2.30
2023-03-28T16:10:51.371Z,2.20
2023-03-28T16:14:19.710Z,2.75
2023-03-28T16:17:47.485Z,2.17
2023-03-28T16:21:04.491Z,2.47
2023-03-28T16:24:06.776Z,3.15
2023-03-28T16:27:09.050Z,3.42
2023-03-28T16:30:27.612Z,2.05
2023-03-28T16:33:30.246Z,2.33
2023-03-28T16:36:32.512Z,2.22
2023-03-28T16:39:35.880Z,2.60
2023-03-28T16:42:38.055Z,2.50
2023-03-28T16:45:40.631Z,2.30
2023-03-28T16:48:42.963Z,1.95
2023-03-28T16:51:45.410Z,2.22
2023-03-28T16:54:50.338Z,2.47
2023-03-28T16:57:52.545Z,1.90
2023-03-28T17:01:19.208Z,2.50
2023-03-28T17:04:21.714Z,2.10
2023-03-28T17:07:23.958Z,2.17
2023-03-28T17:10:27.770Z,2.28
2023-03-28T17:13:31.742Z,1.98
2023-03-28T17:16:33.986Z,2.75
2023-03-28T17:19:36.441Z,2.75
2023-03-28T17:22:39.067Z,1.92
2023-03-28T17:25:53.928Z,2.55
2023-03-28T17:29:07.116Z,1.80
2023-03-28T17:32:09.769Z,1.95
2023-03-28T17:35:12.402Z,2.22
2023-03-28T17:38:15.159Z,2.30
2023-03-28T17:41:17.655Z,2.25
2023-03-28T17:44:19.931Z,2.22
2023-03-28T17:47:22.622Z,2.20
2023-03-28T17:50:25.491Z,3.90
2023-03-28T17:53:27.717Z,2.40
2023-03-28T17:56:29.976Z,2.85
2023-03-28T17:59:32.422Z,2.40
2023-03-28T18:02:34.960Z,2.38
2023-03-28T18:05:52.107Z,1.90
2023-03-28T18:08:54.509Z,2.33
2023-03-28T18:11:56.782Z,2.53
2023-03-28T18:15:00.916Z,2.55
2023-03-28T18:18:03.749Z,2.30
2023-03-28T18:21:07.837Z,2.75
2023-03-28T18:24:10.066Z,2.38
2023-03-28T18:27:12.349Z,2.75
2023-03-28T18:30:15.013Z,2.28
2023-03-28T18:33:17.697Z,2.70
2023-03-28T18:36:19.884Z,2.58
2023-03-28T18:39:26.173Z,3.00
2023-03-28T18:42:30.233Z,2.47
2023-03-28T18:45:34.495Z,2.70
2023-03-28T18:48:37.023Z,1.92
2023-03-28T18:51:39.846Z,2.90
2023-03-28T18:54:46.214Z,4.57
2023-03-28T18:57:48.405Z,2.78
2023-03-28T19:00:59.329Z,2.25
2023-03-28T19:04:01.756Z,4.57
2023-03-28T19:07:04.521Z,3.92
2023-03-28T19:10:07.616Z,2.78
2023-03-28T19:13:09.791Z,3.45
2023-03-28T19:16:14.095Z,3.00
2023-03-28T19:19:16.867Z,3.70
2023-03-28T19:22:19.029Z,3.05
2023-03-28T19:25:21.250Z,3.53
2023-03-28T19:28:23.749Z,2.50
2023-03-28T19:31:26.214Z,3.03
2023-03-28T19:34:29.299Z,3.85
2023-03-28T19:37:31.523Z,3.53
2023-03-28T19:40:33.945Z,3.00
2023-03-28T19:43:36.299Z,3.40
2023-03-28T19:46:39.069Z,3.38
2023-03-28T19:49:41.448Z,3.75
2023-03-28T19:52:43.814Z,3.75
2023-03-28T19:55:55.224Z,4.22
2023-03-28T19:58:57.418Z,3.90
2023-03-28T20:01:59.643Z,3.92
2023-03-28T20:05:01.916Z,3.40
2023-03-28T20:08:04.158Z,3.58
2023-03-28T20:11:12.191Z,4.82
2023-03-28T20:14:17.383Z,4.15
2023-03-28T20:17:19.760Z,4.55
2023-03-28T20:20:24.151Z,4.07
2023-03-28T20:23:29.117Z,3.38
2023-03-28T20:26:33.188Z,4.70
2023-03-28T20:29:37.038Z,3.53
2023-03-28T20:32:39.455Z,4.20
2023-03-28T20:35:44.380Z,3.80
2023-03-28T20:38:46.923Z,3.60
2023-03-28T20:41:49.093Z,3.65
2023-03-28T20:44:51.242Z,4.38
2023-03-28T20:48:07.214Z,3.88
2023-03-28T20:51:16.035Z,4.05
2023-03-28T20:54:18.189Z,4.38
2023-03-28T20:57:21.740Z,5.65
2023-03-28T21:00:25.128Z,3.85
2023-03-28T21:03:39.577Z,3.92
2023-03-28T21:06:43.504Z,4.45
2023-03-28T21:09:45.823Z,4.60
2023-03-28T21:12:49.187Z,8.00
2023-03-28T21:15:51.902Z,6.13
2023-03-28T21:18:54.246Z,5.93
2023-03-28T21:21:57.336Z,8.32
2023-03-28T21:25:00.525Z,6.30
2023-03-28T21:28:02.834Z,7.18
2023-03-28T21:31:08.061Z,9.25
2023-03-28T21:34:10.286Z,8.18
2023-03-28T21:37:12.816Z,8.80
2023-03-28T21:40:15.022Z,10.95
2023-03-28T21:43:17.257Z,10.40
2023-03-28T21:46:19.807Z,15.23
2023-03-28T21:49:21.988Z,12.52
2023-03-28T21:52:24.270Z,10.60
2023-03-28T21:55:27.081Z,10.48
2023-03-28T21:58:32.175Z,10.15
2023-03-28T22:01:34.676Z,10.02
2023-03-28T22:04:37.022Z,10.07
2023-03-28T22:07:39.225Z,12.65
2023-03-28T22:10:50.553Z,8.85
2023-03-28T22:13:52.721Z,9.35
2023-03-28T22:16:55.431Z,8.05
2023-03-28T22:19:57.635Z,9.63
2023-03-28T22:23:01.330Z,7.57
2023-03-28T22:26:03.864Z,8.15
2023-03-28T22:29:06.549Z,10.32
2023-03-28T22:32:08.922Z,9.35
2023-03-28T22:35:13.841Z,8.05
2023-03-28T22:38:16.173Z,7.97
2023-03-28T22:41:18.375Z,10.48
2023-03-28T22:44:21.841Z,8.35
2023-03-28T22:47:30.594Z,8.20
2023-03-28T22:50:33.944Z,9.32
2023-03-28T22:53:37.472Z,9.30
2023-03-28T22:56:41.765Z,7.55
2023-03-28T22:59:43.938Z,7.28
2023-03-28T23:02:46.862Z,8.50
2023-03-28T23:05:51.868Z,8.43
2023-03-28T23:08:54.139Z,8.02
2023-03-28T23:11:56.604Z,9.48
2023-03-28T23:14:58.810Z,9.30
2023-03-28T23:18:01.121Z,7.25
2023-03-28T23:21:03.570Z,10.73
2023-03-28T23:24:06.187Z,8.45
2023-03-28T23:27:09.187Z,8.90
2023-03-28T23:30:13.871Z,6.80
2023-03-28T23:33:18.544Z,8.35
2023-03-28T23:36:21.255Z,7.43
2023-03-28T23:39:24.506Z,8.63
2023-03-28T23:42:26.729Z,7.82
2023-03-28T23:45:29.998Z,7.28
2023-03-28T23:48:32.371Z,7.63
2023-03-28T23:51:34.809Z,9.45
2023-03-28T23:54:37.398Z,8.85
2023-03-28T23:57:39.648Z,7.20
